Time;durP1;ratioP1;P1;durP2;ratioP2;P2;SDS_P1;SDS_P2;PMS_P1;PMS_P2;Temp;Humidity;BMP_temperature;BMP_pressure;BME280_temperature;BME280_humidity;BME280_pressure;Samples;Min_cycle;Max_cycle;Signal;HPM_P1;HPM_P2
2022/02/23 00:00:07;;;;;;;8.43;2.73;;;14.50;58.70;;;;;;5006619;28;20441;-82
2022/02/23 00:02:38;;;;;;;5.07;2.53;;;14.50;58.80;;;;;;5006856;28;20465;-82
2022/02/23 00:05:07;;;;;;;8.27;2.90;;;14.50;58.90;;;;;;5006665;28;20461;-81
2022/02/23 00:07:35;;;;;;;5.23;2.60;;;14.50;58.80;;;;;;5006222;28;20453;-82
2022/02/23 00:10:03;;;;;;;8.03;2.47;;;14.50;58.90;;;;;;5007693;28;20441;-82
2022/02/23 00:12:31;;;;;;;7.27;2.40;;;14.50;58.90;;;;;;5005785;28;20448;-82
2022/02/23 00:14:59;;;;;;;7.40;3.40;;;14.50;58.90;;;;;;5006133;28;20457;-82
2022/02/23 00:17:28;;;;;;;7.40;2.60;;;14.50;59.00;;;;;;5007414;28;20464;-82
2022/02/23 00:19:56;;;;;;;9.00;2.47;;;14.50;58.80;;;;;;5006895;28;20445;-82
2022/02/23 00:22:25;;;;;;;8.90;2.90;;;14.50;58.90;;;;;;5006136;28;20481;-82
2022/02/23 00:24:53;;;;;;;5.60;2.50;;;14.50;58.90;;;;;;5006598;28;20460;-82
2022/02/23 00:27:21;;;;;;;7.93;3.23;;;14.50;59.00;;;;;;5006113;28;20465;-81
2022/02/23 00:29:49;;;;;;;5.43;2.60;;;14.50;59.00;;;;;;5005174;28;20504;-82
2022/02/23 00:32:17;;;;;;;8.97;2.90;;;14.50;58.90;;;;;;5002108;28;20453;-81
2022/02/23 00:34:48;;;;;;;6.70;3.00;;;14.50;58.90;;;;;;5006958;28;20437;-82
2022/02/23 00:37:16;;;;;;;7.67;2.93;;;14.50;58.90;;;;;;5006664;28;20492;-82
2022/02/23 00:39:44;;;;;;;6.27;2.63;;;14.50;59.00;;;;;;5004220;28;20453;-82
2022/02/23 00:42:12;;;;;;;7.70;2.20;;;14.50;59.00;;;;;;5006435;28;20508;-82
2022/02/23 00:44:39;;;;;;;3.53;2.20;;;14.50;59.00;;;;;;5005467;28;20508;-82
2022/02/23 00:47:10;;;;;;;9.07;3.07;;;14.40;58.90;;;;;;5006349;28;20457;-81
2022/02/23 00:49:38;;;;;;;6.80;2.93;;;14.40;59.00;;;;;;5006323;28;20488;-82
2022/02/23 00:52:07;;;;;;;9.10;3.10;;;14.40;59.00;;;;;;5003225;28;20445;-82
2022/02/23 00:54:35;;;;;;;4.80;2.47;;;14.40;59.00;;;;;;5005733;28;20430;-82
2022/02/23 00:57:04;;;;;;;8.87;2.40;;;14.40;58.90;;;;;;5006088;28;20461;-82
2022/02/23 00:59:32;;;;;;;5.40;2.47;;;14.40;59.00;;;;;;5005591;28;20438;-81
2022/02/23 01:02:00;;;;;;;5.23;2.77;;;14.40;58.90;;;;;;5004014;28;20472;-81
2022/02/23 01:04:28;;;;;;;8.23;2.77;;;14.40;59.00;;;;;;5003006;28;20445;-82
2022/02/23 01:06:55;;;;;;;7.60;2.40;;;14.40;59.00;;;;;;5007722;28;20429;-81
2022/02/23 01:09:25;;;;;;;7.70;3.00;;;14.40;59.00;;;;;;5009169;28;20441;-82
2022/02/23 01:11:52;;;;;;;6.30;2.90;;;14.40;59.20;;;;;;5009486;28;20544;-82
2022/02/23 01:14:20;;;;;;;6.53;2.77;;;14.40;58.90;;;;;;5009972;28;20449;-82
2022/02/23 01:16:48;;;;;;;8.33;2.63;;;14.40;58.90;;;;;;5002467;28;20457;-83
2022/02/23 01:19:16;;;;;;;6.70;2.87;;;14.40;58.90;;;;;;4999675;28;20449;-83
2022/02/23 01:21:44;;;;;;;4.70;2.10;;;14.40;58.90;;;;;;4999488;28;20937;-82
2022/02/23 01:24:12;;;;;;;7.27;3.20;;;14.40;59.00;;;;;;4999083;28;20472;-83
2022/02/23 01:26:41;;;;;;;12.23;3.20;;;14.40;59.00;;;;;;4999452;28;20511;-83
2022/02/23 01:29:09;;;;;;;9.27;2.83;;;14.40;59.00;;;;;;4999555;28;20421;-83
2022/02/23 01:31:37;;;;;;;8.43;3.00;;;14.40;59.00;;;;;;4999204;28;20473;-83
2022/02/23 01:34:05;;;;;;;8.20;2.90;;;14.40;59.00;;;;;;5001406;28;20500;-83
2022/02/23 01:36:33;;;;;;;7.90;2.87;;;14.40;58.90;;;;;;4999741;28;20535;-85
2022/02/23 01:39:04;;;;;;;5.07;2.50;;;14.40;58.90;;;;;;4999426;28;20439;-82
2022/02/23 01:41:31;;;;;;;10.10;3.00;;;14.40;59.00;;;;;;4999127;28;20556;-83
2022/02/23 01:44:01;;;;;;;10.63;2.80;;;14.40;58.80;;;;;;4999513;28;20516;-82
2022/02/23 01:46:30;;;;;;;6.00;2.70;;;14.40;58.80;;;;;;4998893;28;20473;-82
2022/02/23 01:48:57;;;;;;;8.37;2.80;;;14.40;58.90;;;;;;4998987;28;20560;-83
2022/02/23 01:51:25;;;;;;;5.60;2.73;;;14.40;58.90;;;;;;4998028;28;20540;-83
2022/02/23 01:53:53;;;;;;;10.80;3.07;;;14.40;58.90;;;;;;4998742;28;20488;-82
2022/02/23 01:56:21;;;;;;;9.43;3.03;;;14.40;58.90;;;;;;4998442;28;20497;-83
2022/02/23 01:58:49;;;;;;;7.97;3.23;;;14.40;59.00;;;;;;4998577;28;20441;-83
2022/02/23 02:01:18;;;;;;;6.53;2.50;;;14.40;59.00;;;;;;4999618;28;20441;-83
2022/02/23 02:03:47;;;;;;;7.67;2.67;;;14.40;59.10;;;;;;4999288;28;20505;-82
2022/02/23 02:06:14;;;;;;;8.30;2.50;;;14.30;59.00;;;;;;4998798;28;20492;-82
2022/02/23 02:08:42;;;;;;;6.83;2.77;;;14.30;59.10;;;;;;4998422;28;20488;-83
2022/02/23 02:11:12;;;;;;;8.30;3.17;;;14.30;59.10;;;;;;4999172;28;20469;-83
2022/02/23 02:13:40;;;;;;;10.47;2.90;;;14.20;59.10;;;;;;4999022;28;20481;-82
2022/02/23 02:16:08;;;;;;;7.27;2.83;;;14.30;59.10;;;;;;4997929;28;21054;-82
2022/02/23 02:18:37;;;;;;;3.80;2.57;;;14.20;59.10;;;;;;4999095;28;20545;-83
2022/02/23 02:21:05;;;;;;;9.13;3.20;;;14.20;59.00;;;;;;4998739;28;20437;-82
2022/02/23 02:23:34;;;;;;;11.23;2.80;;;14.30;59.20;;;;;;4999023;28;20548;-83
2022/02/23 02:26:02;;;;;;;7.83;2.73;;;14.20;59.10;;;;;;4996974;28;20504;-83
2022/02/23 02:28:30;;;;;;;8.63;3.00;;;14.20;59.20;;;;;;4999552;28;20433;-83
2022/02/23 02:30:57;;;;;;;8.13;2.63;;;14.20;59.10;;;;;;4999006;28;20461;-82
2022/02/23 02:33:25;;;;;;;8.20;2.90;;;14.20;59.10;;;;;;4999377;28;20449;-81
2022/02/23 02:35:53;;;;;;;7.20;2.80;;;14.20;59.10;;;;;;4998709;28;20544;-83
2022/02/23 02:38:21;;;;;;;9.50;3.03;;;14.20;59.10;;;;;;4999120;28;20488;-83
2022/02/23 02:40:50;;;;;;;9.73;3.17;;;14.20;59.10;;;;;;4997431;28;20461;-83
2022/02/23 02:43:18;;;;;;;6.93;2.27;;;14.20;59.30;;;;;;4998089;28;20477;-83
2022/02/23 02:45:46;;;;;;;9.43;2.50;;;14.20;59.30;;;;;;4998094;28;20516;-82
2022/02/23 02:48:14;;;;;;;12.07;2.87;;;14.10;59.20;;;;;;4997935;28;21012;-83
2022/02/23 02:50:42;;;;;;;8.20;2.50;;;14.10;59.30;;;;;;4998700;28;20438;-82
2022/02/23 02:53:10;;;;;;;6.63;3.00;;;14.10;59.20;;;;;;5000224;28;20465;-83
2022/02/23 02:55:37;;;;;;;5.83;2.10;;;14.10;59.30;;;;;;5004952;28;20473;-83
2022/02/23 02:58:08;;;;;;;7.90;2.70;;;14.10;59.20;;;;;;5001920;28;20453;-83
2022/02/23 03:00:36;;;;;;;7.37;2.60;;;14.10;59.20;;;;;;4998581;28;20442;-83
2022/02/23 03:03:04;;;;;;;5.60;2.60;;;14.10;59.30;;;;;;4998202;28;20481;-83
2022/02/23 03:05:32;;;;;;;6.43;2.50;;;14.10;59.40;;;;;;4998578;28;20492;-83
2022/02/23 03:08:00;;;;;;;9.23;3.40;;;14.10;59.40;;;;;;4998261;28;20437;-83
2022/02/23 03:10:28;;;;;;;8.57;2.50;;;14.10;59.20;;;;;;4997845;28;20472;-83
2022/02/23 03:12:56;;;;;;;5.50;2.43;;;14.10;59.40;;;;;;4996336;28;20485;-83
2022/02/23 03:15:26;;;;;;;8.03;2.77;;;14.10;59.40;;;;;;4997683;28;20481;-83
2022/02/23 03:17:54;;;;;;;4.50;2.50;;;14.00;59.30;;;;;;4997917;28;20437;-83
2022/02/23 03:20:22;;;;;;;8.30;3.03;;;14.10;59.40;;;;;;4998334;28;20437;-83
2022/02/23 03:22:50;;;;;;;6.53;2.30;;;14.00;59.30;;;;;;4997754;28;20429;-83
2022/02/23 03:25:17;;;;;;;11.63;2.80;;;14.00;59.20;;;;;;4996963;28;20497;-82
2022/02/23 03:27:46;;;;;;;9.93;3.10;;;14.00;59.30;;;;;;4996860;28;20449;-83
2022/02/23 03:30:13;;;;;;;8.27;3.20;;;14.10;59.30;;;;;;4997391;28;20460;-83
2022/02/23 03:32:43;;;;;;;8.23;2.90;;;14.10;59.30;;;;;;4997679;28;20433;-83
2022/02/23 03:35:11;;;;;;;6.40;2.83;;;14.00;59.30;;;;;;4997352;28;20465;-83
2022/02/23 03:37:39;;;;;;;7.40;2.27;;;14.00;59.30;;;;;;4994746;28;20544;-82
2022/02/23 03:40:08;;;;;;;10.70;2.97;;;14.00;59.40;;;;;;4992930;28;20536;-82
2022/02/23 03:42:36;;;;;;;7.17;2.90;;;14.00;59.40;;;;;;4992714;28;20441;-82
2022/02/23 03:45:05;;;;;;;8.40;2.97;;;14.00;59.30;;;;;;4991826;28;20517;-82
2022/02/23 03:47:33;;;;;;;8.97;2.70;;;14.00;59.40;;;;;;4988096;28;20933;-82
2022/02/23 03:50:02;;;;;;;9.00;2.20;;;14.00;59.30;;;;;;4993078;28;20479;-82
2022/02/23 03:52:30;;;;;;;4.70;2.73;;;14.00;59.40;;;;;;4992972;28;20446;-81
2022/02/23 03:54:58;;;;;;;7.23;2.37;;;14.00;59.30;;;;;;4992927;28;20445;-82
2022/02/23 03:57:26;;;;;;;10.83;2.47;;;14.00;59.40;;;;;;4992993;28;20503;-82
2022/02/23 03:59:54;;;;;;;9.60;2.77;;;14.00;59.30;;;;;;4993247;28;20532;-82
2022/02/23 04:02:21;;;;;;;7.60;2.73;;;14.00;59.50;;;;;;4991813;28;20483;-82
2022/02/23 04:04:49;;;;;;;8.27;3.23;;;14.00;59.50;;;;;;4992771;28;20496;-82
2022/02/23 04:07:18;;;;;;;9.10;3.00;;;14.00;59.40;;;;;;4992990;28;20437;-82
2022/02/23 04:09:48;;;;;;;7.90;3.17;;;14.00;59.50;;;;;;4993258;28;20495;-81
2022/02/23 04:12:16;;;;;;;7.60;2.77;;;14.00;59.40;;;;;;4993251;28;20442;-83
2022/02/23 04:14:45;;;;;;;6.10;2.60;;;14.00;59.30;;;;;;4993249;28;20569;-83
2022/02/23 04:17:13;;;;;;;4.10;2.37;;;14.00;59.30;;;;;;4992893;28;20480;-81
2022/02/23 04:19:41;;;;;;;7.07;2.57;;;14.00;59.40;;;;;;4993583;28;20465;-82
2022/02/23 04:22:09;;;;;;;6.67;2.57;;;14.00;59.20;;;;;;4973958;28;20470;-81
2022/02/23 04:24:38;;;;;;;5.70;2.60;;;14.00;59.20;;;;;;4973795;28;20509;-81
2022/02/23 04:27:06;;;;;;;9.93;2.50;;;14.00;59.30;;;;;;4973384;28;20540;-81
2022/02/23 04:29:34;;;;;;;9.50;2.80;;;14.00;59.30;;;;;;4973670;28;20435;-82
2022/02/23 04:32:02;;;;;;;8.77;2.90;;;14.00;59.40;;;;;;4973648;28;20521;-82
2022/02/23 04:34:30;;;;;;;5.53;2.40;;;14.00;59.30;;;;;;4988655;28;20472;-82
2022/02/23 04:36:58;;;;;;;9.90;2.97;;;13.90;59.30;;;;;;4993578;28;20472;-82
2022/02/23 04:39:28;;;;;;;10.33;2.50;;;13.90;59.30;;;;;;4993704;28;20444;-81
2022/02/23 04:41:57;;;;;;;8.50;2.80;;;13.90;59.20;;;;;;4997213;28;20443;-82
2022/02/23 04:44:25;;;;;;;4.67;2.90;;;13.90;59.10;;;;;;4997270;28;20504;-82
2022/02/23 04:46:54;;;;;;;5.27;2.97;;;13.90;59.30;;;;;;4997031;28;20441;-81
2022/02/23 04:49:22;;;;;;;7.40;2.67;;;13.90;59.30;;;;;;4996432;28;20485;-82
2022/02/23 04:51:50;;;;;;;5.90;2.77;;;13.90;59.30;;;;;;4997734;28;20472;-82
2022/02/23 04:54:18;;;;;;;6.33;2.70;;;13.90;59.40;;;;;;4997279;28;20509;-83
2022/02/23 04:56:46;;;;;;;6.87;2.60;;;13.90;59.40;;;;;;4997711;28;20461;-82
2022/02/23 04:59:16;;;;;;;6.70;2.90;;;13.80;59.30;;;;;;4997134;28;20437;-82
2022/02/23 05:01:44;;;;;;;5.73;2.20;;;13.90;59.50;;;;;;4997600;28;20520;-83
2022/02/23 05:04:11;;;;;;;7.00;3.10;;;13.80;59.20;;;;;;4996666;28;20453;-82
2022/02/23 05:06:39;;;;;;;6.83;2.80;;;13.90;59.40;;;;;;4997661;28;20492;-83
2022/02/23 05:09:07;;;;;;;6.67;2.40;;;13.80;59.40;;;;;;4997573;28;20464;-81
2022/02/23 05:11:35;;;;;;;7.43;2.70;;;13.80;59.30;;;;;;4998146;28;20509;-81
2022/02/23 05:14:03;;;;;;;4.53;2.50;;;13.80;59.40;;;;;;4997547;28;20488;-82
2022/02/23 05:16:32;;;;;;;7.83;3.17;;;13.80;59.30;;;;;;4998266;28;20481;-82
2022/02/23 05:19:02;;;;;;;11.30;2.70;;;13.80;59.40;;;;;;4996932;28;20500;-82
2022/02/23 05:21:29;;;;;;;8.07;3.00;;;13.80;59.30;;;;;;4997557;28;20429;-83
2022/02/23 05:23:57;;;;;;;9.07;2.90;;;13.80;59.30;;;;;;5000641;28;20437;-83
2022/02/23 05:26:25;;;;;;;8.37;2.77;;;13.80;59.40;;;;;;4997969;28;20555;-83
2022/02/23 05:28:53;;;;;;;6.90;2.40;;;13.70;59.30;;;;;;4998195;28;20429;-83
2022/02/23 05:31:21;;;;;;;8.60;2.50;;;13.80;59.30;;;;;;4997962;28;20442;-82
2022/02/23 05:33:51;;;;;;;6.30;2.37;;;13.80;59.40;;;;;;4997409;28;20430;-82
2022/02/23 05:36:19;;;;;;;11.80;2.50;;;13.80;59.40;;;;;;4998386;28;20481;-84
2022/02/23 05:38:46;;;;;;;9.87;2.87;;;13.80;59.40;;;;;;4998153;28;20437;-83
2022/02/23 05:41:14;;;;;;;11.50;2.90;;;13.80;59.40;;;;;;4998560;28;20484;-84
2022/02/23 05:43:42;;;;;;;6.00;2.33;;;13.80;59.40;;;;;;4998469;28;20492;-84
2022/02/23 05:46:10;;;;;;;4.73;2.20;;;13.70;59.30;;;;;;4998316;28;20476;-83
2022/02/23 05:48:38;;;;;;;6.87;2.67;;;13.80;59.30;;;;;;4998478;28;20441;-84
2022/02/23 05:51:22;;;;;;;7.50;2.37;;;13.70;59.20;;;;;;4997053;28;20457;-83
2022/02/23 05:53:50;;;;;;;7.20;3.07;;;13.70;59.30;;;;;;4998425;28;20437;-83
2022/02/23 05:56:18;;;;;;;5.43;2.47;;;13.70;59.20;;;;;;4998958;28;20457;-84
2022/02/23 05:58:46;;;;;;;6.27;2.63;;;13.70;59.30;;;;;;4998348;28;20445;-84
2022/02/23 06:01:14;;;;;;;8.50;2.30;;;13.70;59.20;;;;;;4998816;28;20457;-84
2022/02/23 06:03:42;;;;;;;6.47;3.03;;;13.70;59.30;;;;;;4998552;28;20481;-83
2022/02/23 06:06:11;;;;;;;7.00;2.60;;;13.70;59.20;;;;;;4998893;28;20473;-84
2022/02/23 06:08:39;;;;;;;5.10;2.87;;;13.70;59.20;;;;;;4998794;28;20457;-84
2022/02/23 06:11:08;;;;;;;9.47;2.97;;;13.70;59.30;;;;;;4992019;28;20469;-84
2022/02/23 06:13:36;;;;;;;9.03;2.60;;;13.70;59.20;;;;;;4998610;28;20473;-84
2022/02/23 06:16:04;;;;;;;9.57;2.90;;;13.70;59.30;;;;;;4998511;28;20465;-84
2022/02/23 06:18:32;;;;;;;7.27;2.60;;;13.70;59.20;;;;;;4998426;28;20499;-84
2022/02/23 06:21:01;;;;;;;6.23;2.40;;;13.70;59.20;;;;;;4998430;28;20441;-84
2022/02/23 06:23:30;;;;;;;8.33;2.30;;;13.70;59.30;;;;;;4997138;28;20489;-82
2022/02/23 06:25:58;;;;;;;7.30;2.90;;;13.70;59.30;;;;;;4997674;28;20596;-83
2022/02/23 06:28:26;;;;;;;8.93;3.13;;;13.70;59.30;;;;;;4998303;28;20445;-84
2022/02/23 06:30:53;;;;;;;5.27;2.93;;;13.70;59.20;;;;;;4998355;28;20429;-83
2022/02/23 06:33:25;;;;;;;8.80;2.60;;;13.60;59.20;;;;;;4998543;28;20460;-83
2022/02/23 06:35:53;;;;;;;6.60;2.40;;;13.60;59.30;;;;;;4998283;28;20472;-82
2022/02/23 06:38:23;;;;;;;8.77;3.27;;;13.60;59.20;;;;;;4998548;28;21053;-83
2022/02/23 06:40:56;;;;;;;6.37;2.73;;;13.60;59.90;;;;;;4997659;28;20453;-83
2022/02/23 06:43:25;;;;;;;5.50;2.60;;;13.60;59.30;;;;;;4998315;28;20441;-82
2022/02/23 06:45:53;;;;;;;5.17;2.10;;;13.60;59.30;;;;;;4997951;28;20496;-84
2022/02/23 06:48:22;;;;;;;8.23;2.73;;;13.60;59.40;;;;;;4998740;28;20434;-84
2022/02/23 06:50:50;;;;;;;9.57;2.97;;;13.60;59.30;;;;;;4999208;28;20442;-83
2022/02/23 06:53:18;;;;;;;6.27;2.27;;;13.60;59.20;;;;;;4998793;28;20465;-83
2022/02/23 06:55:46;;;;;;;7.57;2.77;;;13.60;59.20;;;;;;4997280;28;20462;-82
2022/02/23 06:58:15;;;;;;;8.73;3.03;;;13.60;59.30;;;;;;4997391;28;20477;-84
2022/02/23 07:00:43;;;;;;;5.10;2.10;;;13.70;59.30;;;;;;4998674;28;20465;-84
2022/02/23 07:03:11;;;;;;;7.20;3.00;;;13.70;59.20;;;;;;4997764;28;20477;-83
2022/02/23 07:05:39;;;;;;;7.00;2.50;;;13.70;59.20;;;;;;4997492;28;20508;-84
2022/02/23 07:08:07;;;;;;;8.07;2.70;;;13.70;59.30;;;;;;4998302;28;20445;-84
2022/02/23 07:10:36;;;;;;;6.03;2.43;;;13.70;59.10;;;;;;4998009;28;20444;-84
2022/02/23 07:13:05;;;;;;;6.50;2.40;;;13.80;59.20;;;;;;4996905;28;20493;-84
2022/02/23 07:15:35;;;;;;;3.80;2.07;;;13.80;59.30;;;;;;4998165;28;20556;-84
2022/02/23 07:18:03;;;;;;;8.63;2.70;;;13.80;59.20;;;;;;4998071;28;20491;-84
2022/02/23 07:20:31;;;;;;;6.53;2.57;;;13.80;59.10;;;;;;4998354;28;20876;-83
2022/02/23 07:22:59;;;;;;;8.77;2.60;;;13.80;59.20;;;;;;4998299;28;20448;-84
2022/02/23 07:25:28;;;;;;;8.40;2.67;;;13.80;59.80;;;;;;4997968;28;20515;-84
2022/02/23 07:27:56;;;;;;;5.77;2.30;;;13.80;59.10;;;;;;4997993;28;20437;-84
2022/02/23 07:30:24;;;;;;;6.73;2.40;;;13.90;59.30;;;;;;4996953;28;20500;-83
2022/02/23 07:32:54;;;;;;;8.63;2.80;;;13.90;59.10;;;;;;4997793;28;20437;-84
2022/02/23 07:35:22;;;;;;;7.00;2.67;;;13.90;59.20;;;;;;4997885;28;20453;-84
2022/02/23 07:38:04;;;;;;;6.47;2.90;;;13.90;59.20;;;;;;4997969;28;20476;-83
2022/02/23 07:40:32;;;;;;;6.30;2.50;;;13.90;59.10;;;;;;5006611;28;20452;-84
2022/02/23 07:43:20;;;;;;;11.80;2.87;;;14.00;59.20;;;;;;5005666;28;20469;-83
2022/02/23 07:45:47;;;;;;;7.73;2.80;;;14.00;59.20;;;;;;5000041;28;20453;-84
2022/02/23 07:48:17;;;;;;;9.37;2.77;;;14.00;59.10;;;;;;4998804;28;20445;-83
2022/02/23 07:50:45;;;;;;;8.90;2.97;;;14.10;59.20;;;;;;4998476;28;20449;-84
2022/02/23 07:53:12;;;;;;;7.77;3.20;;;14.10;59.10;;;;;;4998390;28;20445;-84
2022/02/23 07:55:41;;;;;;;4.37;2.50;;;14.20;59.10;;;;;;4997875;28;20449;-84
2022/02/23 07:58:09;;;;;;;5.73;2.70;;;14.20;59.00;;;;;;4998660;28;20458;-84
2022/02/23 08:00:38;;;;;;;7.33;2.60;;;14.30;59.10;;;;;;4996937;28;21071;-84
2022/02/23 08:03:06;;;;;;;13.87;2.60;;;14.30;59.00;;;;;;4998083;28;20434;-84
2022/02/23 08:05:35;;;;;;;5.87;2.13;;;14.40;59.10;;;;;;4997658;28;20449;-84
2022/02/23 08:08:04;;;;;;;7.83;2.73;;;14.50;59.00;;;;;;4998134;28;20469;-84
2022/02/23 08:10:32;;;;;;;10.90;2.80;;;14.50;59.00;;;;;;4998429;28;20480;-84
2022/02/23 08:12:59;;;;;;;7.90;2.80;;;14.70;59.00;;;;;;4998262;28;20452;-84
2022/02/23 08:21:01;;;;;;;10.50;3.40;;;15.10;58.70;;;;;;5004228;28;20512;-83
2022/02/23 08:23:28;;;;;;;9.03;2.83;;;15.20;58.20;;;;;;5004861;28;20429;-84
2022/02/23 08:25:56;;;;;;;6.80;3.07;;;15.50;58.30;;;;;;5003659;28;20465;-82
2022/02/23 08:28:24;;;;;;;14.33;3.13;;;15.70;57.70;;;;;;5003937;28;20488;-83
2022/02/23 08:30:53;;;;;;;6.00;2.50;;;15.90;57.50;;;;;;5004750;28;20459;-84
2022/02/23 08:33:20;;;;;;;7.07;2.93;;;16.10;57.00;;;;;;5004605;28;20464;-83
2022/02/23 08:35:48;;;;;;;7.77;2.70;;;16.20;57.10;;;;;;5003667;28;20486;-84
2022/02/23 08:38:18;;;;;;;8.23;2.93;;;16.30;57.20;;;;;;5003837;28;20441;-84
2022/02/23 08:40:45;;;;;;;8.63;3.00;;;16.40;57.20;;;;;;5004954;28;20464;-84
2022/02/23 08:43:13;;;;;;;9.27;2.97;;;16.60;57.40;;;;;;5005167;28;20464;-83
2022/02/23 08:45:41;;;;;;;9.77;3.77;;;16.80;57.30;;;;;;5004110;28;20458;-84
2022/02/23 08:48:09;;;;;;;9.40;3.10;;;16.90;57.50;;;;;;5004449;28;20500;-84
2022/02/23 08:50:37;;;;;;;7.50;2.73;;;17.10;57.60;;;;;;5004479;28;20488;-84
2022/02/23 08:53:05;;;;;;;6.50;2.87;;;17.30;57.40;;;;;;5002790;28;20452;-83
2022/02/23 08:55:35;;;;;;;7.00;2.87;;;17.40;57.60;;;;;;5004420;28;20493;-83
2022/02/23 08:58:02;;;;;;;9.10;2.90;;;17.40;58.00;;;;;;5004440;28;20448;-84
2022/02/23 09:00:30;;;;;;;7.87;2.93;;;17.60;58.00;;;;;;5003471;28;20955;-84
2022/02/23 09:03:01;;;;;;;5.53;2.70;;;17.80;58.00;;;;;;5004207;28;20449;-84
2022/02/23 09:05:29;;;;;;;9.00;3.57;;;17.90;58.20;;;;;;5004031;28;20465;-84
2022/02/23 09:07:57;;;;;;;12.17;2.90;;;18.00;58.50;;;;;;5002661;28;21055;-84
2022/02/23 09:10:25;;;;;;;10.13;3.23;;;18.10;59.00;;;;;;5003215;28;20456;-84
2022/02/23 09:12:54;;;;;;;6.67;2.73;;;18.20;59.10;;;;;;5003314;28;20476;-84
2022/02/23 09:15:22;;;;;;;6.30;2.97;;;18.40;59.10;;;;;;5003753;28;20461;-84
2022/02/23 09:17:50;;;;;;;9.40;2.77;;;18.60;59.10;;;;;;5003994;28;20848;-84
2022/02/23 09:20:18;;;;;;;6.10;2.67;;;18.70;59.00;;;;;;5004019;28;20441;-84
2022/02/23 09:22:46;;;;;;;6.00;2.90;;;19.00;59.10;;;;;;5004083;28;20449;-84
2022/02/23 09:25:14;;;;;;;4.53;2.57;;;19.20;59.80;;;;;;5002661;28;20476;-83
2022/02/23 09:27:42;;;;;;;5.53;2.67;;;19.30;59.10;;;;;;5000672;28;20472;-85
2022/02/23 09:30:12;;;;;;;3.40;2.37;;;19.50;59.00;;;;;;5000304;28;20477;-84
2022/02/23 09:32:41;;;;;;;7.40;2.70;;;19.70;59.10;;;;;;5001344;28;20445;-83
2022/02/23 09:35:09;;;;;;;6.87;2.77;;;19.90;59.10;;;;;;5000228;28;20505;-84
2022/02/23 09:37:37;;;;;;;7.83;2.50;;;20.10;59.10;;;;;;5000661;28;20476;-84
2022/02/23 09:40:09;;;;;;;6.80;2.70;;;20.30;59.20;;;;;;5000527;28;20965;-84
2022/02/23 09:42:37;;;;;;;4.93;2.37;;;20.40;59.20;;;;;;4999385;28;20464;-84
2022/02/23 09:45:07;;;;;;;7.77;2.90;;;20.70;59.20;;;;;;5002596;28;20453;-84
2022/02/23 09:47:42;;;;;;;6.07;2.90;;;20.70;59.10;;;;;;5001465;28;20853;-85
2022/02/23 09:50:11;;;;;;;9.30;2.90;;;21.00;59.10;;;;;;5001028;28;20441;-85
2022/02/23 09:52:39;;;;;;;6.33;2.73;;;21.20;59.00;;;;;;5000192;28;20434;-84
2022/02/23 09:55:08;;;;;;;6.13;2.50;;;21.40;58.90;;;;;;5000791;28;20464;-84
2022/02/23 09:57:36;;;;;;;5.47;3.00;;;21.60;58.80;;;;;;5000945;28;20434;-85
2022/02/23 10:00:05;;;;;;;5.77;2.93;;;21.70;58.70;;;;;;4999723;28;20480;-84
2022/02/23 10:02:35;;;;;;;6.80;2.93;;;21.70;58.90;;;;;;4999957;28;20484;-83
2022/02/23 10:05:05;;;;;;;4.43;2.80;;;21.90;58.80;;;;;;5000478;28;20473;-84
2022/02/23 10:07:38;;;;;;;5.37;2.83;;;22.10;58.80;;;;;;5000364;28;20472;-84
2022/02/23 10:10:08;;;;;;;5.50;2.70;;;22.20;58.80;;;;;;5000240;28;20485;-84
2022/02/23 10:12:36;;;;;;;7.90;2.60;;;22.40;58.90;;;;;;5000599;28;20433;-84
2022/02/23 10:15:06;;;;;;;4.50;2.60;;;22.60;58.70;;;;;;4999017;28;20513;-83
2022/02/23 10:17:38;;;;;;;5.00;2.60;;;22.70;58.70;;;;;;5000506;28;20429;-84
2022/02/23 10:20:25;;;;;;;6.63;2.60;;;22.80;58.70;;;;;;4999741;28;20469;-84
2022/02/23 10:22:52;;;;;;;4.43;2.47;;;22.90;58.80;;;;;;4997679;28;20473;-84
2022/02/23 10:25:24;;;;;;;4.83;2.50;;;23.10;58.70;;;;;;4999801;28;20498;-83
2022/02/23 10:28:05;;;;;;;4.60;2.83;;;23.30;58.60;;;;;;4999537;28;20469;-82
2022/02/23 10:30:33;;;;;;;4.37;2.50;;;23.40;58.70;;;;;;4998687;28;20464;-84
2022/02/23 10:33:12;;;;;;;6.27;2.67;;;23.50;58.60;;;;;;4999402;28;20442;-83
2022/02/23 10:35:49;;;;;;;4.50;2.43;;;23.70;58.60;;;;;;4999689;28;20504;-84
2022/02/23 10:38:23;;;;;;;11.53;3.60;;;23.90;58.40;;;;;;4995557;28;20416;-84
2022/02/23 10:40:51;;;;;;;3.70;2.50;;;24.10;58.40;;;;;;4999222;28;20936;-84
2022/02/23 10:43:28;;;;;;;5.93;2.50;;;24.20;58.30;;;;;;4999143;28;20423;-85
2022/02/23 10:46:04;;;;;;;4.97;2.53;;;24.30;58.10;;;;;;4999320;28;20463;-83
2022/02/23 10:48:33;;;;;;;5.97;2.90;;;24.50;57.90;;;;;;4999563;28;20469;-83
2022/02/23 10:51:03;;;;;;;3.27;2.47;;;24.60;57.60;;;;;;4999511;28;20451;-82
2022/02/23 10:53:31;;;;;;;8.47;2.80;;;24.70;57.60;;;;;;4999194;28;20499;-83
2022/02/23 10:56:00;;;;;;;4.93;2.33;;;24.90;57.60;;;;;;4999172;28;20469;-82
2022/02/23 10:58:28;;;;;;;7.00;2.40;;;25.00;57.40;;;;;;4999197;28;20408;-84
2022/02/23 11:00:57;;;;;;;6.83;2.83;;;25.20;57.10;;;;;;4998547;28;20420;-85
2022/02/23 11:03:28;;;;;;;5.30;2.47;;;25.40;56.90;;;;;;4998199;28;20441;-84
2022/02/23 11:05:56;;;;;;;5.80;2.57;;;25.50;56.70;;;;;;4998264;28;21044;-83
2022/02/23 11:08:25;;;;;;;5.50;2.83;;;25.70;56.60;;;;;;4998625;28;20469;-84
2022/02/23 11:10:53;;;;;;;3.50;2.47;;;25.90;56.50;;;;;;4998522;28;20475;-84
2022/02/23 11:13:21;;;;;;;7.03;2.97;;;26.00;56.30;;;;;;4999065;28;20419;-84
2022/02/23 11:15:52;;;;;;;6.60;2.53;;;26.20;56.00;;;;;;5007184;28;20563;-84
2022/02/23 11:18:23;;;;;;;4.93;2.50;;;26.30;55.70;;;;;;5006602;28;20416;-84
2022/02/23 11:20:52;;;;;;;5.27;2.47;;;26.50;55.50;;;;;;5005396;28;20494;-85
2022/02/23 11:23:22;;;;;;;4.60;2.50;;;26.70;55.30;;;;;;5007046;28;20948;-84
2022/02/23 11:25:53;;;;;;;3.70;2.30;;;27.00;54.80;;;;;;5008554;28;20463;-84
2022/02/23 11:28:22;;;;;;;3.93;2.67;;;27.50;54.20;;;;;;5008724;28;20536;-84
2022/02/23 11:30:52;;;;;;;2.70;2.33;;;28.20;52.90;;;;;;5007800;28;20433;-84
2022/02/23 11:33:42;;;;;;;4.90;2.40;;;28.90;51.70;;;;;;5006930;28;20436;-85
2022/02/23 11:36:18;;;;;;;4.50;3.03;;;29.50;50.30;;;;;;5004759;28;20469;-83
2022/02/23 11:38:52;;;;;;;7.57;2.77;;;30.40;48.80;;;;;;5002004;28;20437;-84
2022/02/23 11:41:25;;;;;;;4.67;2.40;;;31.00;47.50;;;;;;5008276;28;20975;-84
2022/02/23 11:44:03;;;;;;;4.90;2.50;;;31.60;46.20;;;;;;5005508;28;20472;-83
2022/02/23 11:46:50;;;;;;;3.63;2.43;;;32.10;45.20;;;;;;5006321;28;20492;-84
2022/02/23 11:49:18;;;;;;;3.30;2.60;;;32.80;44.20;;;;;;5004780;28;20491;-84
2022/02/23 11:52:05;;;;;;;2.83;2.50;;;33.60;42.60;;;;;;5005219;28;20453;-84
2022/02/23 11:55:11;;;;;;;2.60;2.40;;;34.20;41.80;;;;;;5001334;28;20535;-84
2022/02/23 11:57:47;;;;;;;2.67;2.47;;;35.10;39.80;;;;;;5000343;28;20476;-83
2022/02/23 12:00:56;;;;;;;2.43;2.20;;;36.00;38.20;;;;;;5000646;28;20422;-84
2022/02/23 12:03:26;;;;;;;2.40;2.20;;;36.30;36.30;;;;;;5000497;28;20432;-84
2022/02/23 12:05:57;;;;;;;4.30;2.73;;;36.00;35.30;;;;;;5002085;28;20457;-84
2022/02/23 12:08:43;;;;;;;2.80;2.20;;;35.80;37.00;;;;;;5001381;28;20473;-85
2022/02/23 12:11:42;;;;;;;4.10;2.40;;;36.40;36.00;;;;;;5000081;28;20457;-85
2022/02/23 12:14:14;;;;;;;2.33;2.10;;;36.90;35.20;;;;;;5002482;28;20453;-84
2022/02/23 12:16:49;;;;;;;2.60;1.87;;;37.20;34.40;;;;;;4999645;28;20469;-84
2022/02/23 12:19:18;;;;;;;2.40;1.97;;;37.60;34.20;;;;;;4998932;28;20456;-85
2022/02/23 12:21:46;;;;;;;1.97;1.87;;;37.70;33.00;;;;;;4985289;28;20442;-84
2022/02/23 12:24:15;;;;;;;2.40;1.87;;;37.40;32.10;;;;;;4984042;28;20442;-84
2022/02/23 12:26:43;;;;;;;4.90;2.10;;;37.60;33.50;;;;;;4994217;28;20523;-87
2022/02/23 12:29:14;;;;;;;2.07;1.90;;;36.90;34.40;;;;;;4996432;28;20600;-84
2022/02/23 12:31:45;;;;;;;2.33;2.13;;;37.20;33.90;;;;;;4993959;28;20518;-83
2022/02/23 12:34:15;;;;;;;3.50;2.40;;;36.20;33.30;;;;;;4994588;28;20437;-84
2022/02/23 12:37:04;;;;;;;2.10;1.90;;;36.40;35.00;;;;;;4997267;28;20433;-83
2022/02/23 12:39:33;;;;;;;2.73;2.00;;;36.90;33.50;;;;;;4993756;28;20480;-83
2022/02/23 12:42:02;;;;;;;3.17;1.60;;;37.20;33.50;;;;;;4992189;28;20461;-83
2022/02/23 12:44:32;;;;;;;1.93;1.80;;;37.20;33.00;;;;;;4993436;28;20456;-82
2022/02/23 12:47:01;;;;;;;2.40;1.97;;;36.50;33.50;;;;;;4993549;28;20454;-83
2022/02/23 12:49:29;;;;;;;1.63;1.53;;;35.40;33.60;;;;;;4992621;28;20492;-82
2022/02/23 12:51:58;;;;;;;3.00;1.90;;;35.70;34.30;;;;;;4998881;28;20473;-86
2022/02/23 12:54:29;;;;;;;2.83;2.07;;;35.40;34.80;;;;;;4994249;28;20484;-85
2022/02/23 12:56:57;;;;;;;1.87;1.77;;;34.90;33.90;;;;;;4994932;28;20438;-83
2022/02/23 12:59:26;;;;;;;2.27;1.47;;;35.20;35.50;;;;;;4992187;28;20475;-84
2022/02/23 13:01:56;;;;;;;2.23;1.50;;;35.30;34.80;;;;;;4993770;28;20499;-85